createdAt,value
2022-10-10T00:02:14.475Z,10.34
2022-10-10T00:04:45.214Z,10.07
2022-10-10T00:07:15.029Z,10.05
2022-10-10T00:09:44.762Z,10.06
2022-10-10T00:12:14.837Z,10.20
2022-10-10T00:14:44.588Z,10.14
2022-10-10T00:17:14.071Z,10.18
2022-10-10T00:19:43.817Z,10.10
2022-10-10T00:22:13.381Z,10.01
2022-10-10T00:24:43.119Z,10.13
2022-10-10T00:27:12.854Z,10.19
2022-10-10T00:29:42.593Z,10.08
2022-10-10T00:32:12.243Z,10.02
2022-10-10T00:34:42.152Z,10.06
2022-10-10T00:37:11.876Z,9.96
2022-10-10T00:39:41.607Z,9.99
2022-10-10T00:42:14.053Z,10.04
2022-10-10T00:44:45.534Z,10.04
2022-10-10T00:47:15.345Z,9.84
2022-10-10T00:49:45.947Z,10.02
2022-10-10T00:52:15.429Z,10.05
2022-10-10T00:54:45.132Z,9.80
2022-10-10T00:57:16.047Z,9.97
2022-10-10T00:59:47.398Z,9.87
2022-10-10T01:02:17.260Z,9.92
2022-10-10T01:04:47.434Z,9.97
2022-10-10T01:07:20.205Z,9.90
2022-10-10T01:09:52.490Z,9.86
2022-10-10T01:12:58.252Z,9.86
2022-10-10T01:15:36.760Z,9.83
2022-10-10T01:18:16.424Z,9.75
2022-10-10T01:21:04.034Z,9.83
2022-10-10T01:23:45.728Z,9.84
2022-10-10T01:26:30.077Z,9.91
2022-10-10T01:29:14.655Z,9.90
2022-10-10T01:31:47.587Z,9.64
2022-10-10T01:34:37.687Z,9.68
2022-10-10T01:37:12.887Z,9.81
2022-10-10T01:39:51.125Z,9.76
2022-10-10T01:42:30.076Z,9.76
2022-10-10T01:44:59.900Z,9.59
2022-10-10T01:47:29.620Z,9.74
2022-10-10T01:50:02.406Z,9.78
2022-10-10T01:52:35.474Z,9.52
2022-10-10T01:55:19.794Z,9.63
2022-10-10T01:58:17.806Z,9.52
2022-10-10T02:00:56.430Z,9.61
2022-10-10T02:03:29.224Z,9.65
2022-10-10T02:06:10.688Z,9.57
2022-10-10T02:08:52.378Z,9.55
2022-10-10T02:11:22.696Z,9.42
2022-10-10T02:14:19.488Z,9.52
2022-10-10T02:16:51.869Z,9.54
2022-10-10T02:19:23.735Z,9.47
2022-10-10T02:21:55.415Z,9.45
2022-10-10T02:24:26.393Z,9.46
2022-10-10T02:26:59.205Z,9.53
2022-10-10T02:29:31.980Z,9.50
2022-10-10T02:32:16.861Z,9.45
2022-10-10T02:34:49.638Z,9.47
2022-10-10T02:37:20.560Z,9.35
2022-10-10T02:39:53.831Z,9.41
2022-10-10T02:42:24.805Z,9.33
2022-10-10T02:44:56.294Z,9.48
2022-10-10T02:47:26.102Z,9.37
2022-10-10T02:49:55.873Z,9.28
2022-10-10T02:52:25.640Z,9.28
2022-10-10T02:54:55.137Z,9.28
2022-10-10T02:57:24.882Z,9.29
2022-10-10T02:59:54.643Z,9.25
2022-10-10T03:02:24.366Z,9.31
2022-10-10T03:04:54.112Z,9.27
2022-10-10T03:07:23.856Z,9.35
2022-10-10T03:09:54.042Z,9.13
2022-10-10T03:12:24.198Z,9.11
2022-10-10T03:14:53.944Z,9.09
2022-10-10T03:17:23.678Z,9.04
2022-10-10T03:19:53.434Z,9.15
2022-10-10T03:22:23.057Z,9.13
2022-10-10T03:24:52.776Z,8.94
2022-10-10T03:27:22.523Z,9.12
2022-10-10T03:29:52.283Z,9.13
2022-10-10T03:32:22.243Z,9.09
2022-10-10T03:34:51.976Z,9.09
2022-10-10T03:37:21.713Z,9.13
2022-10-10T03:39:51.433Z,9.05
2022-10-10T03:42:21.214Z,9.06
2022-10-10T03:44:50.983Z,8.88
2022-10-10T03:47:20.717Z,8.96
2022-10-10T03:49:50.478Z,8.84
2022-10-10T03:52:21.841Z,8.96
2022-10-10T03:54:51.588Z,8.90
2022-10-10T03:57:21.053Z,9.01
2022-10-10T03:59:50.789Z,8.86
2022-10-10T04:02:20.390Z,8.80
2022-10-10T04:04:50.130Z,8.73
2022-10-10T04:07:20.360Z,8.90
2022-10-10T04:09:50.219Z,8.75
2022-10-10T04:12:19.936Z,8.89
2022-10-10T04:14:49.675Z,8.70
2022-10-10T04:17:19.488Z,8.78
2022-10-10T04:19:49.503Z,8.70
2022-10-10T04:22:19.242Z,8.60
2022-10-10T04:24:49.014Z,8.66
2022-10-10T04:27:18.764Z,8.60
2022-10-10T04:29:48.515Z,8.66
2022-10-10T04:32:18.010Z,8.63
2022-10-10T04:34:47.759Z,8.69
2022-10-10T04:37:17.522Z,8.59
2022-10-10T04:39:47.556Z,8.57
2022-10-10T04:42:17.302Z,8.74
2022-10-10T04:44:47.029Z,8.72
2022-10-10T04:47:16.783Z,8.57
2022-10-10T04:49:46.516Z,8.57
2022-10-10T04:52:16.189Z,8.44
2022-10-10T04:54:45.939Z,8.59
2022-10-10T04:57:15.663Z,8.56
2022-10-10T04:59:45.393Z,8.54
2022-10-10T05:02:15.199Z,8.60
2022-10-10T05:04:45.298Z,8.60
2022-10-10T05:07:15.108Z,8.70
2022-10-10T05:09:44.889Z,8.70
2022-10-10T05:12:14.858Z,8.65
2022-10-10T05:14:47.961Z,8.82
2022-10-10T05:17:16.369Z,8.67
2022-10-10T05:19:46.181Z,8.71
2022-10-10T05:22:15.974Z,8.63
2022-10-10T05:24:45.703Z,8.73
2022-10-10T05:27:15.497Z,8.63
2022-10-10T05:29:45.229Z,8.59
2022-10-10T05:32:14.681Z,8.71
2022-10-10T05:34:44.714Z,8.65
2022-10-10T05:37:14.475Z,8.79
2022-10-10T05:39:44.287Z,8.78
2022-10-10T05:42:14.318Z,8.59
2022-10-10T05:44:44.058Z,8.78
2022-10-10T05:47:14.786Z,8.69
2022-10-10T05:49:44.790Z,8.44
2022-10-10T05:52:14.534Z,8.55
2022-10-10T05:54:44.575Z,8.49
2022-10-10T05:57:16.478Z,8.55
2022-10-10T05:59:46.371Z,8.66
2022-10-10T06:02:16.539Z,8.70
2022-10-10T06:04:46.558Z,8.25
2022-10-10T06:07:16.181Z,8.53
2022-10-10T06:09:45.966Z,8.47
2022-10-10T06:12:15.405Z,8.46
2022-10-10T06:14:45.241Z,8.50
2022-10-10T06:17:14.980Z,8.41
2022-10-10T06:19:44.704Z,8.56
2022-10-10T06:22:14.466Z,8.65
2022-10-10T06:24:44.226Z,8.62
2022-10-10T06:27:13.953Z,8.68
2022-10-10T06:29:43.743Z,8.75
2022-10-10T06:32:13.405Z,8.71
2022-10-10T06:34:43.133Z,8.72
2022-10-10T06:37:12.953Z,8.78
2022-10-10T06:39:42.698Z,8.98
2022-10-10T06:42:12.448Z,9.01
2022-10-10T06:44:42.556Z,9.06
2022-10-10T06:47:12.885Z,8.98
2022-10-10T06:49:42.754Z,9.29
2022-10-10T06:52:12.649Z,9.29
2022-10-10T06:54:42.672Z,9.36
2022-10-10T06:57:12.422Z,9.35
2022-10-10T06:59:42.164Z,9.39
2022-10-10T07:02:15.425Z,9.58
2022-10-10T07:04:45.159Z,9.75
2022-10-10T07:07:14.918Z,9.91
2022-10-10T07:09:44.669Z,10.01
2022-10-10T07:12:14.105Z,10.25
2022-10-10T07:14:43.856Z,10.21
2022-10-10T07:17:13.583Z,10.47
2022-10-10T07:19:43.359Z,10.65
2022-10-10T07:22:12.982Z,10.85
2022-10-10T07:24:42.728Z,11.11
2022-10-10T07:27:12.483Z,10.95
2022-10-10T07:29:42.724Z,11.28
2022-10-10T07:32:14.286Z,11.40
2022-10-10T07:34:44.110Z,11.56
2022-10-10T07:37:13.857Z,11.61
2022-10-10T07:39:43.926Z,11.88
2022-10-10T07:42:13.727Z,12.11
2022-10-10T07:44:43.782Z,12.29
2022-10-10T07:47:13.819Z,12.32
2022-10-10T07:49:43.321Z,12.34
2022-10-10T07:52:13.058Z,12.26
2022-10-10T07:54:42.795Z,12.59
2022-10-10T07:57:12.593Z,12.64
2022-10-10T07:59:43.966Z,12.89
2022-10-10T08:02:13.552Z,12.90
2022-10-10T08:04:43.477Z,13.25
2022-10-10T08:07:13.220Z,13.25
2022-10-10T08:09:42.998Z,13.28
2022-10-10T08:12:14.506Z,13.27
2022-10-10T08:14:44.257Z,13.30
2022-10-10T08:17:14.008Z,13.75
2022-10-10T08:19:43.760Z,13.49
2022-10-10T08:22:13.595Z,13.61
2022-10-10T08:24:43.318Z,13.38
2022-10-10T08:27:14.525Z,13.43
2022-10-10T08:29:44.551Z,13.49
2022-10-10T08:32:14.643Z,13.80
2022-10-10T08:34:44.407Z,13.80
2022-10-10T08:37:14.159Z,13.63
2022-10-10T08:39:43.900Z,13.57
2022-10-10T08:42:16.429Z,13.58
2022-10-10T08:44:49.272Z,13.50
2022-10-10T08:47:22.061Z,13.56
2022-10-10T08:49:54.904Z,13.77
2022-10-10T08:52:36.476Z,14.10
2022-10-10T08:55:16.225Z,14.13
2022-10-10T08:57:57.836Z,14.25
2022-10-10T09:00:32.259Z,14.59
2022-10-10T09:03:02.045Z,14.59
2022-10-10T09:05:44.059Z,14.78
2022-10-10T09:08:37.185Z,14.91
2022-10-10T09:11:35.238Z,15.29
2022-10-10T09:14:24.064Z,15.30
2022-10-10T09:17:05.387Z,15.30
2022-10-10T09:19:47.063Z,15.63
2022-10-10T09:22:22.706Z,15.64
2022-10-10T09:24:55.794Z,15.73
2022-10-10T09:27:28.569Z,16.10
2022-10-10T09:30:04.151Z,16.10
2022-10-10T09:32:37.001Z,15.85
2022-10-10T09:35:28.191Z,15.95
2022-10-10T09:38:20.454Z,16.09
2022-10-10T09:40:59.552Z,16.44
2022-10-10T09:43:32.468Z,16.87
2022-10-10T09:46:02.725Z,16.87
2022-10-10T09:48:35.288Z,17.25
2022-10-10T09:51:07.774Z,17.18
2022-10-10T09:53:37.864Z,17.48
2022-10-10T09:56:27.521Z,17.26
2022-10-10T09:58:58.112Z,17.47
2022-10-10T10:01:31.522Z,17.52
2022-10-10T10:04:34.546Z,18.08
2022-10-10T10:06:53.316Z,18.25
2022-10-10T10:09:23.962Z,18.19
2022-10-10T10:11:58.363Z,17.90
2022-10-10T10:14:31.053Z,17.97
2022-10-10T10:17:12.437Z,18.07
2022-10-10T10:19:45.364Z,18.17
2022-10-10T10:22:27.191Z,18.34
2022-10-10T10:24:56.931Z,18.34
2022-10-10T10:27:29.603Z,18.44
2022-10-10T10:30:00.179Z,18.30
2022-10-10T10:32:41.623Z,18.05
2022-10-10T10:35:23.171Z,18.42
2022-10-10T10:38:13.830Z,18.03
2022-10-10T10:41:01.502Z,18.09
2022-10-10T10:44:05.939Z,18.19
2022-10-10T10:46:59.646Z,18.19
2022-10-10T10:49:49.904Z,18.15
2022-10-10T10:52:25.368Z,18.27
2022-10-10T10:55:03.882Z,18.29
2022-10-10T10:58:04.166Z,18.77
2022-10-10T11:00:47.416Z,18.74
2022-10-10T11:03:27.939Z,18.74
2022-10-10T11:05:47.751Z,18.50
2022-10-10T11:08:29.343Z,18.60
2022-10-10T11:11:13.845Z,18.94
2022-10-10T11:14:07.702Z,19.13
2022-10-10T11:16:49.188Z,19.13
2022-10-10T11:19:25.266Z,19.67
2022-10-10T11:22:14.007Z,19.11
2022-10-10T11:24:51.161Z,19.11
2022-10-10T11:27:43.056Z,19.35
2022-10-10T11:30:21.132Z,19.69
2022-10-10T11:32:56.856Z,19.59
2022-10-10T11:35:39.685Z,19.89
2022-10-10T11:38:20.961Z,19.75
2022-10-10T11:40:56.415Z,19.48
2022-10-10T11:43:34.321Z,19.78
2022-10-10T11:46:09.865Z,20.19
2022-10-10T11:48:42.913Z,20.22
2022-10-10T11:51:27.457Z,20.20
2022-10-10T11:54:00.229Z,20.35
2022-10-10T11:56:35.469Z,20.57
2022-10-10T11:59:29.280Z,20.57
2022-10-10T12:02:01.651Z,20.84
2022-10-10T12:04:38.100Z,20.69
2022-10-10T12:07:11.004Z,21.23
2022-10-10T12:09:43.711Z,21.29
2022-10-10T12:12:31.051Z,21.81
2022-10-10T12:15:03.900Z,21.81
2022-10-10T12:17:39.763Z,21.27
2022-10-10T12:20:11.144Z,21.15
2022-10-10T12:22:40.831Z,20.55
2022-10-10T12:25:43.196Z,20.55
2022-10-10T12:28:18.719Z,20.55
2022-10-10T12:31:00.692Z,20.88
2022-10-10T12:33:36.052Z,20.88
2022-10-10T12:36:24.107Z,20.63
2022-10-10T12:39:10.101Z,20.52
2022-10-10T12:41:56.279Z,20.25
2022-10-10T12:44:37.584Z,20.35
2022-10-10T12:47:16.409Z,20.04
2022-10-10T12:50:00.755Z,19.50
2022-10-10T12:52:48.319Z,19.37
2022-10-10T12:58:05.929Z,19.56
2022-10-10T13:00:44.326Z,19.19
2022-10-10T13:03:29.062Z,19.36
2022-10-10T13:06:01.840Z,18.95
2022-10-10T13:08:32.132Z,18.89
2022-10-10T13:11:07.709Z,18.93
2022-10-10T13:13:37.987Z,18.93
2022-10-10T13:16:14.951Z,18.91
2022-10-10T13:18:55.881Z,18.91
2022-10-10T13:21:31.298Z,18.45
2022-10-10T13:24:04.470Z,18.54
2022-10-10T13:26:40.493Z,18.58
2022-10-10T13:29:25.456Z,18.58
2022-10-10T13:31:58.391Z,18.28
2022-10-10T13:34:30.868Z,18.21
2022-10-10T13:37:03.549Z,18.37
2022-10-10T13:39:36.481Z,18.35
2022-10-10T13:42:11.642Z,17.83
2022-10-10T13:44:54.836Z,18.07
2022-10-10T13:47:48.507Z,18.07
2022-10-10T13:50:35.488Z,18.05
2022-10-10T13:53:31.439Z,17.91
2022-10-10T13:56:13.224Z,18.02
2022-10-10T13:58:48.896Z,17.59
2022-10-10T14:01:21.423Z,17.38
2022-10-10T14:03:52.750Z,17.35
2022-10-10T14:06:24.682Z,17.39
2022-10-10T14:08:57.959Z,17.53
2022-10-10T14:11:30.679Z,17.60
2022-10-10T14:14:06.226Z,17.38
2022-10-10T14:16:35.996Z,17.45
2022-10-10T14:19:08.775Z,17.43
2022-10-10T14:21:38.594Z,17.59
2022-10-10T14:24:10.272Z,17.38
2022-10-10T14:26:40.029Z,17.07
2022-10-10T14:29:12.810Z,17.24
2022-10-10T14:31:43.284Z,16.87
2022-10-10T14:34:13.968Z,16.87
2022-10-10T14:36:49.360Z,16.89
2022-10-10T14:39:20.140Z,16.86
2022-10-10T14:41:49.967Z,16.50
2022-10-10T14:44:19.413Z,16.36
2022-10-10T14:46:49.165Z,16.35
2022-10-10T14:49:22.619Z,16.17
2022-10-10T14:51:52.364Z,16.30
2022-10-10T14:54:23.233Z,16.26
2022-10-10T14:57:08.881Z,15.66
2022-10-10T14:59:48.949Z,15.47
2022-10-10T15:01:56.727Z,15.40
2022-10-10T15:04:26.521Z,15.11
2022-10-10T15:07:12.339Z,15.20
2022-10-10T15:09:41.549Z,15.22
2022-10-10T15:11:59.226Z,15.22
2022-10-10T15:14:28.964Z,15.15
2022-10-10T15:16:58.781Z,15.08
2022-10-10T15:19:28.510Z,14.98
2022-10-10T15:21:58.244Z,15.22
2022-10-10T15:24:28.261Z,15.09
2022-10-10T15:26:58.020Z,15.16
2022-10-10T15:29:27.826Z,15.46
2022-10-10T15:31:58.671Z,15.45
2022-10-10T15:34:28.131Z,15.20
2022-10-10T15:36:57.851Z,15.13
2022-10-10T15:39:28.789Z,15.15
2022-10-10T15:42:07.101Z,15.20
2022-10-10T15:44:30.800Z,15.29
2022-10-10T15:47:00.522Z,15.50
2022-10-10T15:49:30.327Z,15.54
2022-10-10T15:52:00.042Z,15.64
2022-10-10T15:54:29.758Z,15.51
2022-10-10T15:56:59.490Z,15.20
2022-10-10T15:59:29.387Z,15.29
2022-10-10T16:01:59.130Z,15.29
2022-10-10T16:04:28.639Z,15.36
2022-10-10T16:07:24.259Z,15.32
2022-10-10T16:09:30.379Z,15.33
2022-10-10T16:12:00.987Z,15.17
2022-10-10T16:14:30.896Z,15.32
2022-10-10T16:17:00.681Z,15.22
2022-10-10T16:19:30.498Z,15.25
2022-10-10T16:22:00.551Z,15.39
2022-10-10T16:24:30.568Z,15.29
2022-10-10T16:27:01.961Z,15.30
2022-10-10T16:29:32.014Z,15.46
2022-10-10T16:32:01.760Z,15.29
2022-10-10T16:34:31.800Z,15.31
2022-10-10T16:37:01.554Z,15.36
2022-10-10T16:39:31.339Z,15.33
2022-10-10T16:42:01.170Z,15.31
2022-10-10T16:44:31.101Z,14.96
2022-10-10T16:47:00.844Z,14.94
2022-10-10T16:49:32.268Z,14.84
2022-10-10T16:52:02.134Z,14.71
2022-10-10T16:54:32.181Z,14.59
2022-10-10T16:57:02.197Z,14.37
2022-10-10T16:59:34.020Z,14.41
2022-10-10T17:02:03.846Z,14.34
2022-10-10T17:04:34.066Z,14.11
2022-10-10T17:07:03.811Z,14.11
2022-10-10T17:09:33.576Z,14.12
2022-10-10T17:12:03.518Z,14.12
2022-10-10T17:14:33.344Z,14.00
2022-10-10T17:17:12.482Z,14.00
2022-10-10T17:19:35.247Z,13.78
2022-10-10T17:22:06.836Z,13.60
2022-10-10T17:24:37.238Z,13.71
2022-10-10T17:27:07.028Z,13.56
2022-10-10T17:29:37.213Z,13.52
2022-10-10T17:32:09.032Z,13.41
2022-10-10T17:34:38.892Z,13.39
2022-10-10T17:37:08.911Z,13.38
2022-10-10T17:39:39.047Z,13.20
2022-10-10T17:42:08.833Z,13.20
2022-10-10T17:44:44.830Z,13.17
2022-10-10T17:47:10.203Z,13.08
2022-10-10T17:49:41.583Z,13.07
2022-10-10T17:52:15.573Z,12.96
2022-10-10T17:54:45.013Z,12.88
2022-10-10T17:57:14.600Z,12.87
2022-10-10T17:59:44.346Z,12.86
2022-10-10T18:02:16.375Z,12.76
2022-10-10T18:04:46.103Z,12.67
2022-10-10T18:07:18.126Z,12.69
2022-10-10T18:09:49.372Z,12.62
2022-10-10T18:12:19.858Z,12.49
2022-10-10T18:14:49.609Z,12.52
2022-10-10T18:17:19.600Z,12.41
2022-10-10T18:19:49.343Z,12.37
2022-10-10T18:22:19.151Z,12.29
2022-10-10T18:24:48.920Z,12.25
2022-10-10T18:27:20.333Z,12.17
2022-10-10T18:29:50.096Z,12.19
2022-10-10T18:32:19.553Z,12.16
2022-10-10T18:34:49.316Z,12.10
2022-10-10T18:37:19.127Z,12.04
2022-10-10T18:39:49.331Z,11.99
2022-10-10T18:42:19.103Z,12.10
2022-10-10T18:44:48.954Z,11.89
2022-10-10T18:47:20.718Z,11.86
2022-10-10T18:49:50.435Z,11.77
2022-10-10T18:52:20.542Z,11.71
2022-10-10T18:54:50.831Z,11.71
2022-10-10T18:57:20.591Z,11.64
2022-10-10T18:59:50.717Z,11.65
2022-10-10T19:02:20.237Z,11.58
2022-10-10T19:04:50.880Z,11.50
2022-10-10T19:07:20.641Z,11.50
2022-10-10T19:09:50.835Z,11.47
2022-10-10T19:12:20.432Z,11.51
2022-10-10T19:14:51.552Z,11.44
2022-10-10T19:17:21.291Z,11.48
2022-10-10T19:19:52.525Z,11.37
2022-10-10T19:22:22.283Z,11.17
2022-10-10T19:24:53.690Z,11.19
2022-10-10T19:27:23.449Z,11.16
2022-10-10T19:29:53.567Z,11.17
2022-10-10T19:32:23.642Z,11.10
2022-10-10T19:34:53.436Z,11.08
2022-10-10T19:37:23.202Z,11.06
2022-10-10T19:39:53.027Z,10.98
2022-10-10T19:42:22.526Z,10.91
2022-10-10T19:44:52.792Z,11.07
2022-10-10T19:47:22.592Z,10.90
2022-10-10T19:49:52.389Z,10.86
2022-10-10T19:52:22.900Z,10.86
2022-10-10T19:54:54.129Z,10.92
2022-10-10T19:57:23.894Z,10.76
2022-10-10T19:59:53.887Z,10.84
2022-10-10T20:02:23.698Z,10.73
2022-10-10T20:04:53.451Z,10.65
2022-10-10T20:07:23.194Z,10.58
2022-10-10T20:09:54.222Z,10.58
2022-10-10T20:12:24.005Z,10.53
2022-10-10T20:14:53.842Z,10.57
2022-10-10T20:17:23.636Z,10.40
2022-10-10T20:19:53.640Z,10.56
2022-10-10T20:22:24.124Z,10.50
2022-10-10T20:24:53.933Z,10.34
2022-10-10T20:27:26.603Z,10.34
2022-10-10T20:29:55.046Z,10.40
2022-10-10T20:32:24.686Z,10.31
2022-10-10T20:34:54.205Z,10.18
2022-10-10T20:37:24.241Z,10.18
2022-10-10T20:39:54.022Z,10.20
2022-10-10T20:42:23.836Z,10.15
2022-10-10T20:44:53.581Z,10.14
2022-10-10T20:47:23.407Z,10.13
2022-10-10T20:49:53.168Z,10.19
2022-10-10T20:52:22.910Z,10.14
2022-10-10T20:54:54.042Z,9.99
2022-10-10T20:57:24.126Z,10.03
2022-10-10T20:59:53.876Z,9.96
2022-10-10T21:02:23.613Z,9.98
2022-10-10T21:04:53.443Z,9.91
2022-10-10T21:07:23.260Z,9.92
2022-10-10T21:09:53.008Z,9.86
2022-10-10T21:12:22.744Z,9.91
2022-10-10T21:14:52.875Z,9.95
2022-10-10T21:17:22.673Z,9.78
2022-10-10T21:19:52.414Z,9.75
2022-10-10T21:22:22.062Z,9.61
2022-10-10T21:24:51.791Z,9.66
2022-10-10T21:27:21.528Z,9.66
2022-10-10T21:29:51.057Z,9.61
2022-10-10T21:32:20.817Z,9.61
2022-10-10T21:34:55.674Z,9.68
2022-10-10T21:37:22.592Z,9.70
2022-10-10T21:39:52.628Z,9.56
2022-10-10T21:42:22.484Z,9.45
2022-10-10T21:44:52.479Z,9.42
2022-10-10T21:47:22.252Z,9.54
2022-10-10T21:49:52.380Z,9.41
2022-10-10T21:52:22.236Z,9.41
2022-10-10T21:54:52.406Z,9.50
2022-10-10T21:57:22.164Z,9.48
2022-10-10T21:59:51.645Z,9.51
2022-10-10T22:02:21.480Z,9.37
2022-10-10T22:04:52.468Z,9.46
2022-10-10T22:07:22.212Z,9.35
2022-10-10T22:09:51.951Z,9.27
2022-10-10T22:12:21.430Z,9.23
2022-10-10T22:14:51.261Z,9.31
2022-10-10T22:17:20.996Z,9.27
2022-10-10T22:19:50.735Z,9.28
2022-10-10T22:22:20.645Z,9.18
2022-10-10T22:24:50.481Z,9.22
2022-10-10T22:27:20.533Z,9.22
2022-10-10T22:29:50.293Z,9.16
2022-10-10T22:32:19.727Z,9.15
2022-10-10T22:34:51.217Z,9.13
2022-10-10T22:37:20.993Z,9.03
2022-10-10T22:39:50.800Z,8.96
2022-10-10T22:42:20.614Z,8.97
2022-10-10T22:44:50.433Z,8.98
2022-10-10T22:47:20.536Z,8.96
2022-10-10T22:49:50.318Z,8.93
2022-10-10T22:52:20.007Z,8.76
2022-10-10T22:54:50.121Z,8.75
2022-10-10T22:57:19.845Z,8.80
2022-10-10T22:59:49.658Z,8.82
2022-10-10T23:02:19.713Z,8.97
2022-10-10T23:04:49.447Z,8.88
2022-10-10T23:07:22.262Z,8.73
2022-10-10T23:09:51.996Z,8.75
2022-10-10T23:12:21.752Z,8.65
2022-10-10T23:14:51.563Z,8.72
2022-10-10T23:17:21.303Z,8.59
2022-10-10T23:19:51.040Z,8.54
2022-10-10T23:22:20.727Z,8.51
2022-10-10T23:24:50.222Z,8.51
2022-10-10T23:27:19.989Z,8.48
2022-10-10T23:29:50.026Z,8.45
2022-10-10T23:32:19.836Z,8.43
2022-10-10T23:34:49.815Z,8.49
2022-10-10T23:37:19.626Z,8.42
2022-10-10T23:39:49.348Z,8.43
2022-10-10T23:42:19.091Z,8.32
2022-10-10T23:44:48.889Z,8.32
2022-10-10T23:47:18.689Z,8.31
2022-10-10T23:49:48.442Z,8.30
2022-10-10T23:52:18.363Z,8.37
2022-10-10T23:54:48.420Z,8.30
2022-10-10T23:57:18.165Z,8.27
2022-10-10T23:59:48.196Z,8.17
